Aviation Digital Data Service (ADDS)

Output produced by METARs form (1321 UTC 26 March 2019)
found at http://www.aviationweather.gov/metar/data/
 
FCBB 261300Z 28005KT 9999 SCT020 FEW026TCU 34/22 Q1011 NOSIG
TAF FCBB 261100Z 2612/2718 24004KT 9000 SCT020 FEW030CB 
     TEMPO 2616/2620 TS 
     BECMG 2621/2623 SCT018 
     BECMG 2712/2714 FEW020 FEW030CB
       
FCPP 261300Z 24008KT 190V270 9999 SCT016 FEW030CB 31/27 Q1010 NOSIG
TAF FCPP 261100Z 2612/2712 20005KT 9000 SCT020 FEW030CB 
     TEMPO 2616/2620 TS 
     BECMG 2621/2623 SCT018